Time;durP1;ratioP1;P1;durP2;ratioP2;P2;SDS_P1;SDS_P2;PMS_P1;PMS_P2;Temp;Humidity;BMP_temperature;BMP_pressure;BME280_temperature;BME280_humidity;BME280_pressure;Samples;Min_cycle;Max_cycle;Signal;HPM_P1;HPM_P2
2022/06/26 00:01:27;;;;;;;1999.90;999.90;;;;;;;23.67;48.90;95145.16;5010158;28;20044;-67
2022/06/26 00:03:52;;;;;;;1999.90;999.90;;;;;;;23.68;49.09;95149.41;5010535;28;20101;-67
2022/06/26 00:06:18;;;;;;;1999.90;999.90;;;;;;;23.49;49.05;95136.94;5009275;28;20124;-67
2022/06/26 00:08:43;;;;;;;1999.90;999.90;;;;;;;23.41;49.10;95143.56;5010306;28;20030;-68
2022/06/26 00:11:09;;;;;;;1999.90;999.90;;;;;;;23.00;50.38;95119.44;5008583;28;20037;-67
2022/06/26 00:13:34;;;;;;;1999.90;999.90;;;;;;;23.10;49.98;95148.53;5010198;28;20112;-66
2022/06/26 00:16:00;;;;;;;1999.90;999.90;;;;;;;23.01;50.70;95145.41;5010305;28;20391;-67
2022/06/26 00:18:25;;;;;;;1999.90;999.90;;;;;;;23.03;50.91;95137.66;5010522;28;20033;-67
2022/06/26 00:20:50;;;;;;;1999.90;999.90;;;;;;;22.99;50.49;95139.59;5009546;28;20032;-67
2022/06/26 00:23:16;;;;;;;1999.90;999.90;;;;;;;22.99;50.82;95162.06;5009904;28;20084;-67
2022/06/26 00:25:41;;;;;;;1999.90;999.90;;;;;;;22.91;50.98;95140.72;5008812;28;20068;-67
2022/06/26 00:28:06;;;;;;;1999.90;999.90;;;;;;;22.98;50.91;95159.72;5010169;28;20075;-67
2022/06/26 00:30:32;;;;;;;1999.90;999.90;;;;;;;22.91;51.20;95146.16;5009495;28;20024;-67
2022/06/26 00:32:57;;;;;;;1999.90;999.90;;;;;;;22.72;51.59;95125.50;5008685;28;20026;-67
2022/06/26 00:35:23;;;;;;;1999.90;999.90;;;;;;;22.86;51.52;95152.69;5008539;28;20103;-67
2022/06/26 00:37:48;;;;;;;1999.90;999.90;;;;;;;22.94;51.58;95164.38;5010003;28;20037;-67
2022/06/26 00:40:14;;;;;;;1999.90;999.90;;;;;;;22.85;51.79;95164.69;5009240;28;20029;-67
2022/06/26 00:42:39;;;;;;;1999.90;999.90;;;;;;;22.78;52.20;95165.47;5008443;28;20026;-67
2022/06/26 00:45:05;;;;;;;1999.90;999.90;;;;;;;22.69;52.27;95147.97;5009766;28;20087;-67
2022/06/26 00:47:31;;;;;;;1999.90;999.90;;;;;;;22.74;52.40;95161.94;5009854;28;20032;-67
2022/06/26 00:49:57;;;;;;;1999.90;999.90;;;;;;;22.76;52.86;95172.41;5007999;28;20026;-67
2022/06/26 00:52:24;;;;;;;1999.90;999.90;;;;;;;22.61;52.92;95146.38;5008147;28;20026;-67
2022/06/26 00:54:50;;;;;;;1999.90;999.90;;;;;;;22.81;52.77;95175.53;5009730;28;20025;-67
2022/06/26 00:57:16;;;;;;;1999.90;999.90;;;;;;;22.69;53.23;95164.25;5009662;28;20028;-67
2022/06/26 00:59:42;;;;;;;1999.90;999.90;;;;;;;22.66;53.34;95152.22;5009645;28;20026;-67
2022/06/26 01:02:07;;;;;;;1999.90;999.90;;;;;;;22.72;52.98;95155.34;5008040;28;20099;-67
2022/06/26 01:04:33;;;;;;;1999.90;999.90;;;;;;;22.95;52.85;95163.22;5009494;28;20022;-67
2022/06/26 01:06:58;;;;;;;1999.90;999.90;;;;;;;22.95;52.70;95152.38;5009510;28;20078;-67
2022/06/26 01:09:24;;;;;;;1999.90;999.90;;;;;;;23.14;52.61;95175.69;5009450;28;20065;-67
2022/06/26 01:11:50;;;;;;;1999.90;999.90;;;;;;;23.11;52.33;95152.78;5009258;28;20068;-67
2022/06/26 01:14:16;;;;;;;1999.90;999.90;;;;;;;23.29;52.17;95166.41;5008166;28;20034;-67
2022/06/26 01:16:42;;;;;;;1999.90;999.90;;;;;;;23.42;51.63;95166.81;5008170;28;20022;-67
2022/06/26 01:19:09;;;;;;;1999.90;999.90;;;;;;;23.58;51.92;95172.66;5008265;28;20038;-67
2022/06/26 01:21:35;;;;;;;1999.90;999.90;;;;;;;23.50;51.41;95154.81;5007728;28;20022;-67
2022/06/26 01:24:02;;;;;;;1999.90;999.90;;;;;;;23.57;51.68;95160.25;5009446;28;20080;-67
2022/06/26 01:26:28;;;;;;;1999.90;999.90;;;;;;;23.59;51.35;95147.81;5009424;28;20037;-67
2022/06/26 01:28:53;;;;;;;1999.90;999.90;;;;;;;23.52;51.32;95139.69;5009308;28;20054;-67
2022/06/26 01:31:19;;;;;;;1999.90;999.90;;;;;;;23.77;50.85;95174.25;5009309;28;20105;-67
2022/06/26 01:33:49;;;;;;;1999.90;999.90;;;;;;;23.66;51.10;95157.94;5007980;28;20075;-67
2022/06/26 01:36:15;;;;;;;1999.90;999.90;;;;;;;23.74;51.26;95162.19;5008311;28;20030;-67
2022/06/26 01:38:41;;;;;;;1999.90;999.90;;;;;;;23.76;51.47;95178.91;5009070;28;20026;-67
2022/06/26 01:41:07;;;;;;;1999.90;999.90;;;;;;;23.66;51.50;95157.19;5007807;28;20025;-67
2022/06/26 01:43:34;;;;;;;1999.90;999.90;;;;;;;23.57;51.24;95136.56;5008013;28;20108;-67
2022/06/26 01:46:01;;;;;;;1999.90;999.90;;;;;;;23.80;51.14;95170.75;5009593;28;20030;-67
2022/06/26 01:48:27;;;;;;;1999.90;999.90;;;;;;;23.70;51.33;95169.59;5009260;28;20022;-68
2022/06/26 01:50:54;;;;;;;1999.90;999.90;;;;;;;23.45;51.73;95136.19;5008944;28;20056;-68
2022/06/26 01:53:20;;;;;;;1999.90;999.90;;;;;;;23.57;51.75;95177.31;5012800;28;20030;-67
2022/06/26 01:55:45;;;;;;;1999.90;999.90;;;;;;;23.42;51.91;95147.81;5011386;28;20441;-67
2022/06/26 01:58:11;;;;;;;1999.90;999.90;;;;;;;23.27;51.96;95134.22;5011535;28;20037;-67
2022/06/26 02:00:40;;;;;;;1999.90;999.90;;;;;;;23.31;51.66;95148.56;5010811;28;20026;-67
2022/06/26 02:03:06;;;;;;;1999.90;999.90;;;;;;;23.13;51.78;95123.31;5011120;28;20022;-66
2022/06/26 02:05:31;;;;;;;1999.90;999.90;;;;;;;23.13;51.74;95134.19;5011093;28;20026;-67
2022/06/26 02:07:57;;;;;;;1999.90;999.90;;;;;;;23.17;51.94;95139.63;5011228;28;20025;-67
2022/06/26 02:15:54;;;;;;;1999.90;999.90;;;;;;;23.21;52.25;95173.75;5012410;28;20536;-67
2022/06/26 02:18:20;;;;;;;1999.90;999.90;;;;;;;22.81;52.98;95151.13;5012573;28;20022;-67
2022/06/26 02:20:45;;;;;;;1999.90;999.90;;;;;;;23.12;53.01;95195.03;5011909;28;20471;-67
2022/06/26 02:23:11;;;;;;;1999.90;999.90;;;;;;;23.14;52.62;95191.97;5012217;28;20062;-67
2022/06/26 02:25:37;;;;;;;1999.90;999.90;;;;;;;23.20;52.71;95169.50;5012174;28;20034;-67
2022/06/26 02:28:03;;;;;;;1999.90;999.90;;;;;;;23.34;52.08;95179.59;5012141;28;20030;-67
2022/06/26 02:30:29;;;;;;;1999.90;999.90;;;;;;;23.37;51.95;95186.19;5011459;28;20026;-66
2022/06/26 02:32:56;;;;;;;1999.90;999.90;;;;;;;23.50;52.08;95204.44;5011926;28;20336;-67
2022/06/26 02:35:22;;;;;;;1999.90;999.90;;;;;;;23.33;52.04;95203.22;5012318;28;20022;-67
2022/06/26 02:37:48;;;;;;;1999.90;999.90;;;;;;;22.51;53.64;95193.97;5011953;28;20036;-67
2022/06/26 02:40:13;;;;;;;1999.90;999.90;;;;;;;21.56;57.98;95227.28;5011386;28;20105;-67
2022/06/26 02:42:38;;;;;;;1999.90;999.90;;;;;;;21.84;57.10;95218.63;5011861;28;20666;-67
2022/06/26 02:45:05;;;;;;;1999.90;999.90;;;;;;;21.75;57.13;95200.78;5012297;28;20504;-67
2022/06/26 02:47:31;;;;;;;1999.90;999.90;;;;;;;21.88;56.87;95209.38;5011884;28;20386;-68
2022/06/26 02:49:56;;;;;;;1999.90;999.90;;;;;;;22.34;55.74;95224.47;5011262;28;20541;-67
2022/06/26 02:52:21;;;;;;;1999.90;999.90;;;;;;;22.71;55.22;95249.47;5011631;28;20021;-66
2022/06/26 02:54:47;;;;;;;1999.90;999.90;;;;;;;22.10;56.64;95250.94;5011541;28;20018;-67
2022/06/26 02:57:12;;;;;;;1999.90;999.90;;;;;;;22.45;55.14;95238.84;5011558;28;20438;-66
2022/06/26 02:59:37;;;;;;;1999.90;999.90;;;;;;;22.79;54.54;95264.63;5011472;28;20359;-67
2022/06/26 03:02:03;;;;;;;1999.90;999.90;;;;;;;21.84;56.62;95246.47;5009888;28;20544;-66
2022/06/26 03:04:29;;;;;;;1999.90;999.90;;;;;;;20.67;61.26;95256.72;5010644;28;20067;-67
2022/06/26 03:06:54;;;;;;;1999.90;999.90;;;;;;;20.92;60.41;95241.59;5011191;28;20113;-67
2022/06/26 03:09:19;;;;;;;1999.90;999.90;;;;;;;21.02;60.77;95261.81;5011398;28;20076;-67
2022/06/26 03:11:44;;;;;;;1999.90;999.90;;;;;;;21.25;59.56;95235.44;5009591;28;20067;-67
2022/06/26 03:14:10;;;;;;;1999.90;999.90;;;;;;;21.57;57.91;95231.53;5011411;28;20033;-67
2022/06/26 03:16:35;;;;;;;1999.90;999.90;;;;;;;22.03;57.42;95256.31;5011075;28;20022;-66
2022/06/26 03:19:01;;;;;;;1999.90;999.90;;;;;;;21.56;57.98;95238.09;5011307;28;20032;-67
2022/06/26 03:21:26;;;;;;;1999.90;999.90;;;;;;;21.27;58.90;95210.72;5010748;28;20026;-68
2022/06/26 03:24:01;;;;;;;1999.90;999.90;;;;;;;22.01;57.27;95250.50;5011434;28;20499;-67
2022/06/26 03:26:34;;;;;;;1999.90;999.90;;;;;;;21.84;57.13;95227.53;5010996;28;20105;-67
2022/06/26 03:29:01;;;;;;;1999.90;999.90;;;;;;;21.85;56.76;95196.59;5011202;28;20026;-67
2022/06/26 03:31:27;;;;;;;1999.90;999.90;;;;;;;22.58;56.06;95268.00;5010533;28;20378;-67
2022/06/26 03:33:54;;;;;;;1999.90;999.90;;;;;;;22.66;55.04;95260.66;5011127;28;20032;-67
2022/06/26 03:36:20;;;;;;;1999.90;999.90;;;;;;;22.90;54.98;95277.50;5011099;28;20121;-67
2022/06/26 03:38:45;;;;;;;1999.90;999.90;;;;;;;22.93;54.67;95265.88;5010653;28;20042;-67
2022/06/26 03:41:11;;;;;;;1999.90;999.90;;;;;;;22.93;54.49;95255.03;5010556;28;20084;-67
2022/06/26 03:43:37;;;;;;;1999.90;999.90;;;;;;;23.01;54.50;95260.13;5010721;28;20064;-67
2022/06/26 03:46:03;;;;;;;1999.90;999.90;;;;;;;23.15;54.73;95285.75;5010748;28;20029;-70
2022/06/26 03:48:29;;;;;;;1999.90;999.90;;;;;;;23.19;54.35;95281.91;5009200;28;20446;-67
2022/06/26 03:50:55;;;;;;;1999.90;999.90;;;;;;;23.25;54.21;95264.09;5010017;28;20071;-67
2022/06/26 03:53:20;;;;;;;1999.90;999.90;;;;;;;23.18;53.88;95247.00;5010721;28;20029;-67
2022/06/26 03:55:45;;;;;;;1999.90;999.90;;;;;;;23.31;53.60;95265.28;5010429;28;20072;-67
2022/06/26 03:58:11;;;;;;;1999.90;999.90;;;;;;;23.55;53.07;95282.81;5010460;28;20116;-67
2022/06/26 04:00:36;;;;;;;1999.90;999.90;;;;;;;23.24;53.31;95305.19;5008746;28;20026;-67
2022/06/26 04:03:04;;;;;;;1999.90;999.90;;;;;;;23.33;53.26;95273.03;5010370;28;20026;-67
2022/06/26 04:05:30;;;;;;;1999.90;999.90;;;;;;;23.41;52.96;95258.34;5010265;28;20402;-67
2022/06/26 04:07:55;;;;;;;1999.90;999.90;;;;;;;23.72;52.39;95288.69;5010302;28;20065;-67
2022/06/26 04:10:21;;;;;;;1999.90;999.90;;;;;;;23.74;52.49;95257.25;5010000;28;20033;-67
2022/06/26 04:12:46;;;;;;;1999.90;999.90;;;;;;;23.97;51.05;95286.03;5009965;28;20026;-67
2022/06/26 04:15:12;;;;;;;1999.90;999.90;;;;;;;23.86;51.04;95254.19;5009601;28;20022;-67
2022/06/26 04:17:37;;;;;;;1999.90;999.90;;;;;;;24.16;50.33;95235.94;5010141;28;20033;-67
2022/06/26 04:20:03;;;;;;;1999.90;999.90;;;;;;;24.69;49.36;95238.63;5009691;28;20133;-67
2022/06/26 04:22:28;;;;;;;1999.90;999.90;;;;;;;25.34;48.23;95297.16;5009905;28;20038;-67
2022/06/26 04:24:54;;;;;;;1999.90;999.90;;;;;;;25.30;47.72;95238.47;5009956;28;20041;-68
2022/06/26 04:27:19;;;;;;;1999.90;999.90;;;;;;;25.89;46.55;95255.63;5010018;28;20487;-67
2022/06/26 04:29:45;;;;;;;1999.90;999.90;;;;;;;26.09;45.97;95266.00;5008651;28;20068;-68
2022/06/26 04:32:10;;;;;;;1999.90;999.90;;;;;;;26.64;45.77;95289.75;5009728;28;20029;-67
2022/06/26 04:34:35;;;;;;;1999.90;999.90;;;;;;;26.74;44.39;95253.41;5009759;28;20065;-67
2022/06/26 04:37:01;;;;;;;1999.90;999.90;;;;;;;26.64;43.96;95257.00;5009974;28;20105;-68
2022/06/26 04:39:26;;;;;;;1999.90;999.90;;;;;;;26.67;43.54;95300.63;5009897;28;20068;-67
2022/06/26 04:41:51;;;;;;;1999.90;999.90;;;;;;;25.63;44.43;95246.03;5009562;28;20168;-68
2022/06/26 04:44:18;;;;;;;1999.90;999.90;;;;;;;25.85;44.96;95245.97;5009722;28;20044;-67
2022/06/26 04:46:46;;;;;;;1999.90;999.90;;;;;;;25.72;44.94;95244.84;5009755;28;20029;-67
2022/06/26 04:49:12;;;;;;;1999.90;999.90;;;;;;;25.70;45.07;95272.50;5009575;28;20022;-67
2022/06/26 04:51:38;;;;;;;1999.90;999.90;;;;;;;25.82;45.29;95274.75;5009008;28;20045;-67
2022/06/26 04:54:05;;;;;;;1999.90;999.90;;;;;;;25.47;45.50;95256.66;5009723;28;20038;-67
2022/06/26 04:56:31;;;;;;;1999.90;999.90;;;;;;;25.99;45.32;95288.66;5008191;28;20108;-67
2022/06/26 04:58:56;;;;;;;1999.90;999.90;;;;;;;25.93;45.20;95291.81;5009578;28;20053;-67
2022/06/26 05:01:23;;;;;;;1999.90;999.90;;;;;;;25.76;45.17;95240.16;5009200;28;20026;-67
2022/06/26 05:03:48;;;;;;;1999.90;999.90;;;;;;;26.28;45.07;95303.66;5009484;28;20030;-67
2022/06/26 05:06:13;;;;;;;1999.90;999.90;;;;;;;25.93;44.75;95237.31;5009491;28;20026;-67
2022/06/26 05:08:39;;;;;;;1999.90;999.90;;;;;;;26.08;44.84;95243.44;5009316;28;20026;-67
2022/06/26 05:11:05;;;;;;;1999.90;999.90;;;;;;;26.23;44.70;95263.19;5009088;28;20080;-67
2022/06/26 05:13:30;;;;;;;1999.90;999.90;;;;;;;26.29;45.06;95253.38;5009505;28;20110;-68
2022/06/26 05:15:57;;;;;;;1999.90;999.90;;;;;;;26.32;44.81;95255.31;5009379;28;20566;-67
2022/06/26 05:18:22;;;;;;;1999.90;999.90;;;;;;;26.45;44.73;95263.81;5009491;28;20032;-68
2022/06/26 05:20:48;;;;;;;1999.90;999.90;;;;;;;26.40;44.55;95228.75;5008910;28;20018;-67
2022/06/26 05:23:14;;;;;;;1999.90;999.90;;;;;;;26.89;44.29;95289.50;5009258;28;20034;-67
2022/06/26 05:25:40;;;;;;;1999.90;999.90;;;;;;;26.79;44.13;95252.97;5009353;28;20030;-67
2022/06/26 05:28:06;;;;;;;1999.90;999.90;;;;;;;27.07;43.37;95251.09;5012719;28;20075;-67
2022/06/26 05:30:31;;;;;;;1999.90;999.90;;;;;;;27.71;42.37;95300.31;5012534;28;20026;-68
2022/06/26 05:32:57;;;;;;;1999.90;999.90;;;;;;;27.87;41.63;95253.22;5013093;28;20033;-68
2022/06/26 05:35:22;;;;;;;1999.90;999.90;;;;;;;28.48;41.13;95264.00;5013198;28;20029;-67
2022/06/26 05:37:47;;;;;;;1999.90;999.90;;;;;;;28.83;39.98;95244.66;5012917;28;20026;-68
2022/06/26 05:40:13;;;;;;;1999.90;999.90;;;;;;;29.34;39.18;95250.72;5012549;28;20028;-68
2022/06/26 05:42:38;;;;;;;1999.90;999.90;;;;;;;29.79;38.01;95256.44;5012624;28;20080;-68
2022/06/26 05:45:04;;;;;;;1999.90;999.90;;;;;;;30.22;37.29;95260.97;5012919;28;20030;-68
2022/06/26 05:47:29;;;;;;;1999.90;999.90;;;;;;;30.01;35.54;95246.53;5011491;28;20029;-68
2022/06/26 05:49:55;;;;;;;1999.90;999.90;;;;;;;30.50;35.29;95256.72;5012393;28;20026;-68
2022/06/26 05:52:20;;;;;;;1999.90;999.90;;;;;;;30.36;35.71;95240.63;5012252;28;20045;-68
2022/06/26 05:54:45;;;;;;;1999.90;999.90;;;;;;;29.67;35.72;95303.69;5012489;28;20025;-68
2022/06/26 05:57:11;;;;;;;1999.90;999.90;;;;;;;29.82;35.59;95295.94;5012831;28;20061;-68
2022/06/26 05:59:36;;;;;;;1999.90;999.90;;;;;;;29.91;35.93;95301.63;5012644;28;20017;-68
2022/06/26 06:02:02;;;;;;;1999.90;999.90;;;;;;;29.47;36.42;95270.78;5012519;28;20034;-68
2022/06/26 06:04:28;;;;;;;1999.90;999.90;;;;;;;29.61;37.06;95302.66;5012473;28;20034;-69
2022/06/26 06:06:53;;;;;;;1999.90;999.90;;;;;;;29.30;36.92;95256.25;5012425;28;20068;-68
2022/06/26 06:09:19;;;;;;;1999.90;999.90;;;;;;;29.50;37.08;95291.88;5011029;28;20113;-68
2022/06/26 06:11:44;;;;;;;1999.90;999.90;;;;;;;29.15;37.29;95282.41;5012069;28;20105;-68
2022/06/26 06:14:09;;;;;;;1999.90;999.90;;;;;;;28.10;38.24;95298.19;5012462;28;20041;-69
2022/06/26 06:16:34;;;;;;;1999.90;999.90;;;;;;;27.17;38.88;95272.84;5010935;28;20025;-69
2022/06/26 06:19:00;;;;;;;1999.90;999.90;;;;;;;26.44;41.56;95314.84;5012359;28;20032;-68
2022/06/26 06:21:25;;;;;;;1999.90;999.90;;;;;;;26.11;42.23;95263.69;5011858;28;20036;-68
2022/06/26 06:23:50;;;;;;;1999.90;999.90;;;;;;;27.14;41.60;95311.13;5012285;28;20030;-68
2022/06/26 06:26:16;;;;;;;1999.90;999.90;;;;;;;26.98;40.29;95245.38;5012107;28;20041;-68
2022/06/26 06:28:41;;;;;;;1999.90;999.90;;;;;;;27.56;40.14;95295.41;5012046;28;20475;-68
2022/06/26 06:31:06;;;;;;;1999.90;999.90;;;;;;;27.68;39.26;95322.94;5011712;28;20029;-69
2022/06/26 06:33:32;;;;;;;1999.90;999.90;;;;;;;27.73;39.41;95292.44;5012085;28;20098;-68
2022/06/26 06:35:58;;;;;;;1999.90;999.90;;;;;;;27.95;39.10;95312.09;5011863;28;20379;-68
2022/06/26 06:38:24;;;;;;;1999.90;999.90;;;;;;;27.97;38.35;95301.50;5011530;28;20038;-69
2022/06/26 06:40:49;;;;;;;1999.90;999.90;;;;;;;28.01;38.86;95295.22;5011370;28;20022;-68
2022/06/26 06:43:15;;;;;;;1999.90;999.90;;;;;;;27.92;38.80;95301.19;5010858;28;20087;-68
2022/06/26 06:45:40;;;;;;;1999.90;999.90;;;;;;;26.37;40.68;95330.47;5012069;28;20379;-68
2022/06/26 06:48:06;;;;;;;1999.90;999.90;;;;;;;26.74;40.72;95323.56;5011606;28;20503;-68
2022/06/26 06:50:32;;;;;;;1999.90;999.90;;;;;;;27.02;40.25;95300.66;5011305;28;20026;-68
2022/06/26 06:52:57;;;;;;;1999.90;999.90;;;;;;;25.24;43.56;95316.28;5011622;28;20401;-68
2022/06/26 06:55:23;;;;;;;1999.90;999.90;;;;;;;25.37;43.84;95309.19;5011630;28;20060;-68
2022/06/26 06:57:48;;;;;;;1999.90;999.90;;;;;;;26.00;42.41;95322.94;5010298;28;20029;-68
2022/06/26 07:00:14;;;;;;;1999.90;999.90;;;;;;;26.09;42.25;95282.38;5011250;28;20029;-68
2022/06/26 07:02:39;;;;;;;1999.90;999.90;;;;;;;26.83;41.53;95323.88;5011314;28;20116;-68
2022/06/26 07:05:06;;;;;;;1999.90;999.90;;;;;;;27.13;41.15;95321.28;5011438;28;20033;-68
2022/06/26 07:07:32;;;;;;;1999.90;999.90;;;;;;;26.67;40.38;95319.75;5011413;28;20076;-68
2022/06/26 07:09:57;;;;;;;1999.90;999.90;;;;;;;26.34;41.21;95302.03;5010873;28;20022;-68
2022/06/26 07:12:23;;;;;;;1999.90;999.90;;;;;;;27.05;40.43;95311.56;5011285;28;20359;-68
2022/06/26 07:14:48;;;;;;;1999.90;999.90;;;;;;;27.22;40.81;95298.91;5011064;28;20030;-68
2022/06/26 07:17:14;;;;;;;1999.90;999.90;;;;;;;27.48;39.82;95305.63;5011457;28;20100;-68
2022/06/26 07:19:39;;;;;;;1999.90;999.90;;;;;;;27.48;39.86;95281.03;5011270;28;20507;-68
2022/06/26 07:22:05;;;;;;;1999.90;999.90;;;;;;;27.41;39.01;95268.25;5010798;28;20057;-68
2022/06/26 07:24:31;;;;;;;1999.90;999.90;;;;;;;26.77;40.49;95287.28;5011002;28;20386;-68
2022/06/26 07:26:56;;;;;;;1999.90;999.90;;;;;;;27.27;39.83;95290.28;5011019;28;20022;-68
2022/06/26 07:29:21;;;;;;;1999.90;999.90;;;;;;;27.46;40.27;95297.84;5009718;28;20113;-68
2022/06/26 07:31:46;;;;;;;1999.90;999.90;;;;;;;27.46;39.39;95275.22;5010569;28;20026;-68
2022/06/26 07:34:12;;;;;;;1999.90;999.90;;;;;;;27.84;39.51;95305.97;5011044;28;20502;-68
2022/06/26 07:36:38;;;;;;;1999.90;999.90;;;;;;;27.94;39.46;95285.91;5010620;28;20105;-68
2022/06/26 07:39:03;;;;;;;1999.90;999.90;;;;;;;28.07;39.83;95286.13;5010638;28;20382;-68
2022/06/26 07:41:29;;;;;;;1999.90;999.90;;;;;;;28.22;38.79;95305.84;5010404;28;20073;-68
2022/06/26 07:43:55;;;;;;;1999.90;999.90;;;;;;;27.84;38.52;95251.31;5010702;28;20065;-68
2022/06/26 07:46:20;;;;;;;1999.90;999.90;;;;;;;27.90;39.13;95257.09;5010770;28;20109;-68
2022/06/26 07:48:45;;;;;;;1999.90;999.90;;;;;;;28.28;38.77;95300.66;5009917;28;20101;-68
2022/06/26 07:51:11;;;;;;;1999.90;999.90;;;;;;;28.25;38.63;95285.84;5010110;28;20385;-68
2022/06/26 07:53:39;;;;;;;1999.90;999.90;;;;;;;28.34;38.25;95280.66;5009045;28;20028;-68
2022/06/26 07:56:05;;;;;;;1999.90;999.90;;;;;;;28.33;38.46;95276.38;5010443;28;20041;-69
2022/06/26 07:58:31;;;;;;;1999.90;999.90;;;;;;;28.18;38.61;95223.84;5008936;28;20042;-69
2022/06/26 08:00:56;;;;;;;1999.90;999.90;;;;;;;28.30;38.03;95241.59;5009869;28;20030;-69
2022/06/26 08:03:22;;;;;;;1999.90;999.90;;;;;;;28.05;37.93;95258.44;5010092;28;20036;-69
2022/06/26 08:05:47;;;;;;;1999.90;999.90;;;;;;;27.75;39.37;95256.53;5010357;28;20037;-68
2022/06/26 08:08:13;;;;;;;1999.90;999.90;;;;;;;27.84;39.06;95223.97;5010332;28;20025;-69
2022/06/26 08:10:38;;;;;;;1999.90;999.90;;;;;;;28.03;39.29;95233.44;5008425;28;20458;-69
2022/06/26 08:13:06;;;;;;;1999.90;999.90;;;;;;;28.69;38.03;95286.72;5025116;22;20124;-72
2022/06/26 08:15:32;;;;;;;1999.90;999.90;;;;;;;28.54;37.76;95261.56;5009017;28;20394;-72
2022/06/26 08:17:57;;;;;;;1999.90;999.90;;;;;;;28.00;37.63;95149.53;5008739;28;20026;-72
2022/06/26 08:20:23;;;;;;;1999.90;999.90;;;;;;;28.76;37.67;95240.06;5008562;28;20026;-72
2022/06/26 08:22:48;;;;;;;1999.90;999.90;;;;;;;27.69;37.68;95072.31;5009686;28;20065;-73
2022/06/26 08:25:14;;;;;;;1999.90;999.90;;;;;;;28.84;37.38;95287.25;5008846;28;20029;-71
2022/06/26 08:27:39;;;;;;;1999.90;999.90;;;;;;;28.50;38.22;95233.47;5009971;28;20084;-70
2022/06/26 08:30:06;;;;;;;1999.90;999.90;;;;;;;27.87;38.43;95179.41;5008376;28;20037;-71
2022/06/26 08:32:32;;;;;;;1999.90;999.90;;;;;;;28.43;37.97;95204.28;5009933;28;20044;-71
2022/06/26 08:34:57;;;;;;;1999.90;999.90;;;;;;;27.50;38.05;95094.88;5008713;28;20072;-72
2022/06/26 08:37:22;;;;;;;1999.90;999.90;;;;;;;27.09;38.96;95120.44;5008527;28;20021;-72
2022/06/26 08:39:48;;;;;;;1999.90;999.90;;;;;;;27.96;39.36;95204.28;5009954;28;20528;-72
2022/06/26 08:42:13;;;;;;;1999.90;999.90;;;;;;;28.42;37.69;95248.50;5009572;28;20028;-73
2022/06/26 08:44:42;;;;;;;1999.90;999.90;;;;;;;28.29;38.43;95245.53;5008416;28;20026;-71
2022/06/26 08:47:09;;;;;;;1999.90;999.90;;;;;;;28.50;36.97;95258.09;5008487;28;20077;-71
2022/06/26 08:49:35;;;;;;;1999.90;999.90;;;;;;;28.71;37.49;95229.59;5010028;28;20022;-72
2022/06/26 08:52:01;;;;;;;1999.90;999.90;;;;;;;29.03;37.36;95247.44;5009440;28;20054;-71
2022/06/26 08:54:28;;;;;;;1999.90;999.90;;;;;;;29.16;37.33;95262.03;5008343;28;20049;-72
2022/06/26 08:56:54;;;;;;;1999.90;999.90;;;;;;;29.37;36.28;95267.06;5008442;28;20026;-72
2022/06/26 08:59:20;;;;;;;1999.90;999.90;;;;;;;29.00;36.52;95216.94;5008490;28;20052;-72
2022/06/26 09:01:45;;;;;;;1999.90;999.90;;;;;;;28.58;36.75;95141.09;5011410;28;20037;-72
2022/06/26 09:04:12;;;;;;;1999.90;999.90;;;;;;;29.21;36.94;95247.84;5012611;28;20037;-72
2022/06/26 09:06:39;;;;;;;1999.90;999.90;;;;;;;28.89;36.65;95221.81;5013496;28;20466;-72
2022/06/26 09:09:18;;;;;;;1999.90;999.90;;;;;;;29.37;36.50;95260.81;5012387;28;20034;-72
2022/06/26 09:11:45;;;;;;;1999.90;999.90;;;;;;;29.32;35.80;95206.50;5013414;28;20084;-71
2022/06/26 09:14:12;;;;;;;1999.90;999.90;;;;;;;29.31;35.95;95202.25;5012479;28;20030;-72
2022/06/26 09:16:42;;;;;;;1999.90;999.90;;;;;;;29.88;35.24;95264.06;5013831;28;20477;-71
2022/06/26 09:19:20;;;;;;;1999.90;999.90;;;;;;;29.70;35.72;95253.50;5012687;28;20053;-73
2022/06/26 09:21:47;;;;;;;1999.90;999.90;;;;;;;29.64;35.41;95268.91;5013542;28;20034;-72
2022/06/26 09:24:15;;;;;;;1999.90;999.90;;;;;;;29.21;36.35;95179.34;5012277;28;20544;-71
2022/06/26 09:26:42;;;;;;;1999.90;999.90;;;;;;;29.95;36.04;95258.44;5013465;28;20030;-72
2022/06/26 09:29:11;;;;;;;1999.90;999.90;;;;;;;29.63;35.04;95185.88;5013160;28;20030;-71
2022/06/26 09:31:38;;;;;;;1999.90;999.90;;;;;;;29.52;35.78;95240.91;5012514;28;20028;-72
2022/06/26 09:34:18;;;;;;;1999.90;999.90;;;;;;;28.61;35.12;95141.03;5012033;28;20030;-71
2022/06/26 09:37:01;;;;;;;1999.90;999.90;;;;;;;28.71;35.64;95180.31;5011998;28;20036;-72
2022/06/26 09:39:27;;;;;;;1999.90;999.90;;;;;;;29.21;35.91;95236.88;5011756;28;20022;-73
2022/06/26 09:41:53;;;;;;;1999.90;999.90;;;;;;;29.72;34.85;95256.59;5011291;28;20052;-74
2022/06/26 09:44:19;;;;;;;1999.90;999.90;;;;;;;28.69;35.92;95166.28;5013134;28;20026;-72
2022/06/26 09:46:45;;;;;;;1999.90;999.90;;;;;;;29.46;35.36;95200.75;5011562;28;20049;-73
2022/06/26 09:49:11;;;;;;;1999.90;999.90;;;;;;;30.10;34.37;95261.59;5011785;28;20391;-72
2022/06/26 09:51:37;;;;;;;1999.90;999.90;;;;;;;30.17;33.85;95226.56;5012520;28;20068;-71
2022/06/26 09:54:04;;;;;;;1999.90;999.90;;;;;;;30.21;34.25;95199.06;5011674;28;20054;-73
2022/06/26 09:56:30;;;;;;;1999.90;999.90;;;;;;;30.56;35.40;95252.28;5011230;28;20022;-72
2022/06/26 09:58:58;;;;;;;1999.90;999.90;;;;;;;30.58;35.20;95246.34;5012683;28;20025;-73
2022/06/26 10:06:56;;;;;;;1999.90;999.90;;;;;;;30.16;33.84;95238.00;5012906;28;20072;-72
2022/06/26 10:09:22;;;;;;;1999.90;999.90;;;;;;;29.68;33.45;95149.75;5012607;28;20068;-73
2022/06/26 10:11:47;;;;;;;1999.90;999.90;;;;;;;30.38;33.39;95238.22;5011243;28;20588;-73
2022/06/26 10:14:23;;;;;;;1999.90;999.90;;;;;;;29.62;34.47;95178.09;5011024;28;20132;-72
2022/06/26 10:17:04;;;;;;;1999.90;999.90;;;;;;;29.77;33.88;95237.66;5012236;28;20096;-72
2022/06/26 10:19:49;;;;;;;1999.90;999.90;;;;;;;28.97;33.21;95135.66;5010759;28;20033;-71
2022/06/26 10:22:15;;;;;;;1999.90;999.90;;;;;;;29.77;33.27;95212.22;5011753;28;20053;-72
2022/06/26 10:24:52;;;;;;;1999.90;999.90;;;;;;;29.27;33.47;95170.19;5012009;28;20030;-72
2022/06/26 10:27:23;;;;;;;1999.90;999.90;;;;;;;29.88;32.84;95248.38;5010626;28;20072;-72
2022/06/26 10:29:49;;;;;;;1999.90;999.90;;;;;;;29.27;30.65;95109.16;5010789;28;20026;-72
2022/06/26 10:32:23;;;;;;;1999.90;999.90;;;;;;;29.20;32.33;95114.81;5010253;28;20029;-72
2022/06/26 10:34:56;;;;;;;1999.90;999.90;;;;;;;30.03;31.67;95208.44;5011904;28;20029;-72
2022/06/26 10:37:21;;;;;;;1999.90;999.90;;;;;;;28.94;30.35;95037.91;5011884;28;20546;-72
2022/06/26 10:39:49;;;;;;;1999.90;999.90;;;;;;;29.81;31.07;95212.13;5011919;28;20112;-72
2022/06/26 10:45:29;;;;;;;1999.90;999.90;;;;;;;29.28;33.40;95225.78;5012090;28;20068;-72
2022/06/26 10:47:57;;;;;;;1999.90;999.90;;;;;;;29.75;33.00;95192.69;5011672;28;20034;-73
2022/06/26 10:50:45;;;;;;;1999.90;999.90;;;;;;;29.64;32.97;95134.59;5011329;28;20029;-73
2022/06/26 10:53:21;;;;;;;1999.90;999.90;;;;;;;30.86;32.88;95239.38;5009890;28;20165;-73
2022/06/26 10:55:53;;;;;;;1999.90;999.90;;;;;;;30.03;32.22;95060.34;5011653;28;20030;-72
2022/06/26 10:58:22;;;;;;;1999.90;999.90;;;;;;;29.48;34.05;95029.22;5011521;28;20041;-72
2022/06/26 11:00:49;;;;;;;1999.90;999.90;;;;;;;31.00;32.79;95160.09;5009884;28;20040;-72
2022/06/26 11:03:17;;;;;;;1999.90;999.90;;;;;;;31.25;32.75;95186.09;5011422;28;20033;-71
2022/06/26 11:05:50;;;;;;;1999.90;999.90;;;;;;;31.08;31.95;95162.66;5011527;28;20017;-72